sensor_id;sensor_type;location;lat;lon;timestamp;pressure;altitude;pressure_sealevel;temperature;humidity
72892;BME280;61032;50.782;6.818;2023-06-05T00:00:56;100895.78;;;16.23;50.07
72892;BME280;61032;50.782;6.818;2023-06-05T00:01:57;100887.31;;;16.15;50.36
72892;BME280;61032;50.782;6.818;2023-06-05T00:02:57;100899.91;;;16.13;50.36
72892;BME280;61032;50.782;6.818;2023-06-05T00:03:59;100897.31;;;16.04;50.62
72892;BME280;61032;50.782;6.818;2023-06-05T00:04:59;100897.31;;;16.04;50.98
72892;BME280;61032;50.782;6.818;2023-06-05T00:06:01;100901.44;;;15.95;51.02
72892;BME280;61032;50.782;6.818;2023-06-05T00:07:02;100896.16;;;15.90;51.53
72892;BME280;61032;50.782;6.818;2023-06-05T00:08:03;100897.22;;;15.85;51.55
72892;BME280;61032;50.782;6.818;2023-06-05T00:09:04;100906.34;;;15.86;51.69
72892;BME280;61032;50.782;6.818;2023-06-05T00:10:06;100909.75;;;15.79;51.95
72892;BME280;61032;50.782;6.818;2023-06-05T00:11:06;100904.34;;;15.70;52.69
72892;BME280;61032;50.782;6.818;2023-06-05T00:12:07;100905.41;;;15.66;52.71
72892;BME280;61032;50.782;6.818;2023-06-05T00:13:08;100914.53;;;15.66;52.63
72892;BME280;61032;50.782;6.818;2023-06-05T00:14:08;100912.09;;;15.65;52.73
72892;BME280;61032;50.782;6.818;2023-06-05T00:15:10;100917.75;;;15.68;52.51
72892;BME280;61032;50.782;6.818;2023-06-05T00:16:10;100918.22;;;15.70;52.83
72892;BME280;61032;50.782;6.818;2023-06-05T00:17:10;100923.19;;;15.65;52.61
72892;BME280;61032;50.782;6.818;2023-06-05T00:18:11;100925.00;;;15.57;53.42
72892;BME280;61032;50.782;6.818;2023-06-05T00:19:11;100926.81;;;15.53;53.41
72892;BME280;61032;50.782;6.818;2023-06-05T00:20:12;100918.28;;;15.58;53.21
72892;BME280;61032;50.782;6.818;2023-06-05T00:21:13;100920.81;;;15.51;53.61
72892;BME280;61032;50.782;6.818;2023-06-05T00:22:13;100923.44;;;15.32;54.30
72892;BME280;61032;50.782;6.818;2023-06-05T00:23:13;100923.78;;;15.30;54.31
72892;BME280;61032;50.782;6.818;2023-06-05T00:24:14;100935.31;;;15.32;54.39
72892;BME280;61032;50.782;6.818;2023-06-05T00:25:14;100928.75;;;15.25;54.74
72892;BME280;61032;50.782;6.818;2023-06-05T00:26:14;100931.78;;;15.20;55.11
72892;BME280;61032;50.782;6.818;2023-06-05T00:27:15;100928.81;;;15.12;55.61
72892;BME280;61032;50.782;6.818;2023-06-05T00:28:15;100927.88;;;15.08;55.69
72892;BME280;61032;50.782;6.818;2023-06-05T00:29:16;100923.38;;;15.04;55.37
72892;BME280;61032;50.782;6.818;2023-06-05T00:30:16;100922.25;;;15.05;55.42
72892;BME280;61032;50.782;6.818;2023-06-05T00:31:16;100921.44;;;15.04;55.58
72892;BME280;61032;50.782;6.818;2023-06-05T00:32:18;100915.78;;;15.01;55.96
72892;BME280;61032;50.782;6.818;2023-06-05T00:33:19;100921.66;;;14.99;56.09
72892;BME280;61032;50.782;6.818;2023-06-05T00:34:19;100924.53;;;15.03;55.74
72892;BME280;61032;50.782;6.818;2023-06-05T00:35:20;100916.28;;;14.91;55.93
72892;BME280;61032;50.782;6.818;2023-06-05T00:36:20;100917.09;;;14.91;55.91
72892;BME280;61032;50.782;6.818;2023-06-05T00:37:22;100909.25;;;14.93;55.71
72892;BME280;61032;50.782;6.818;2023-06-05T00:38:22;100913.16;;;14.92;55.83
72892;BME280;61032;50.782;6.818;2023-06-05T00:39:23;100917.63;;;14.97;55.62
72892;BME280;61032;50.782;6.818;2023-06-05T00:40:23;100909.44;;;15.00;55.48
72892;BME280;61032;50.782;6.818;2023-06-05T00:41:24;100907.13;;;15.02;55.45
72892;BME280;61032;50.782;6.818;2023-06-05T00:42:24;100911.28;;;15.08;55.24
72892;BME280;61032;50.782;6.818;2023-06-05T00:43:26;100915.66;;;15.09;55.25
72892;BME280;61032;50.782;6.818;2023-06-05T00:44:26;100914.25;;;15.16;54.93
72892;BME280;61032;50.782;6.818;2023-06-05T00:45:27;100908.38;;;15.17;54.82
72892;BME280;61032;50.782;6.818;2023-06-05T00:46:27;100913.09;;;15.17;55.13
72892;BME280;61032;50.782;6.818;2023-06-05T00:47:29;100913.00;;;15.13;55.11
72892;BME280;61032;50.782;6.818;2023-06-05T00:48:29;100913.44;;;15.15;54.93
72892;BME280;61032;50.782;6.818;2023-06-05T00:49:31;100916.91;;;15.12;55.16
72892;BME280;61032;50.782;6.818;2023-06-05T00:50:32;100911.28;;;15.08;55.14
72892;BME280;61032;50.782;6.818;2023-06-05T00:51:33;100914.03;;;15.08;55.09
72892;BME280;61032;50.782;6.818;2023-06-05T00:52:34;100918.19;;;15.02;55.51
72892;BME280;61032;50.782;6.818;2023-06-05T00:53:35;100914.97;;;15.00;55.83
72892;BME280;61032;50.782;6.818;2023-06-05T00:54:36;100917.63;;;14.97;56.16
72892;BME280;61032;50.782;6.818;2023-06-05T00:55:37;100913.28;;;14.96;55.84
72892;BME280;61032;50.782;6.818;2023-06-05T00:56:37;100914.66;;;14.90;56.38
72892;BME280;61032;50.782;6.818;2023-06-05T00:57:39;100913.72;;;14.98;56.19
72892;BME280;61032;50.782;6.818;2023-06-05T00:58:40;100912.34;;;14.92;56.41
72892;BME280;61032;50.782;6.818;2023-06-05T00:59:40;100913.41;;;14.87;56.83
72892;BME280;61032;50.782;6.818;2023-06-05T01:00:45;100915.00;;;14.76;57.09
72892;BME280;61032;50.782;6.818;2023-06-05T01:01:45;100915.47;;;14.78;56.78
72892;BME280;61032;50.782;6.818;2023-06-05T01:02:47;100916.44;;;14.70;56.86
72892;BME280;61032;50.782;6.818;2023-06-05T01:03:48;100919.44;;;14.65;57.01
72892;BME280;61032;50.782;6.818;2023-06-05T01:04:49;100915.50;;;14.66;56.85
72892;BME280;61032;50.782;6.818;2023-06-05T01:05:49;100915.59;;;14.57;56.61
72892;BME280;61032;50.782;6.818;2023-06-05T01:06:50;100912.50;;;14.59;56.28
72892;BME280;61032;50.782;6.818;2023-06-05T01:07:52;100918.16;;;14.50;56.21
72892;BME280;61032;50.782;6.818;2023-06-05T01:08:54;100909.28;;;14.44;56.45
72892;BME280;61032;50.782;6.818;2023-06-05T01:09:57;100913.31;;;14.47;56.65
72892;BME280;61032;50.782;6.818;2023-06-05T01:10:59;100913.91;;;14.53;56.40
72892;BME280;61032;50.782;6.818;2023-06-05T01:13:23;100911.34;;;14.60;56.23
72892;BME280;61032;50.782;6.818;2023-06-05T01:14:28;100914.91;;;14.60;56.52
72892;BME280;61032;50.782;6.818;2023-06-05T01:15:31;100915.38;;;14.62;56.45
72892;BME280;61032;50.782;6.818;2023-06-05T01:16:33;100915.25;;;14.59;56.74
72892;BME280;61032;50.782;6.818;2023-06-05T01:17:34;100911.59;;;14.67;56.29
72892;BME280;61032;50.782;6.818;2023-06-05T01:18:37;100910.66;;;14.63;56.96
72892;BME280;61032;50.782;6.818;2023-06-05T01:19:40;100913.66;;;14.58;56.71
72892;BME280;61032;50.782;6.818;2023-06-05T01:20:41;100911.22;;;14.56;56.93
72892;BME280;61032;50.782;6.818;2023-06-05T01:21:42;100914.00;;;14.56;57.05
72892;BME280;61032;50.782;6.818;2023-06-05T01:22:47;100907.78;;;14.47;57.64
72892;BME280;61032;50.782;6.818;2023-06-05T01:23:49;100909.00;;;14.37;57.85
72892;BME280;61032;50.782;6.818;2023-06-05T01:24:53;100917.22;;;14.34;57.76
72892;BME280;61032;50.782;6.818;2023-06-05T01:25:56;100911.09;;;14.28;58.39
72892;BME280;61032;50.782;6.818;2023-06-05T01:28:16;100903.38;;;14.22;58.80
72892;BME280;61032;50.782;6.818;2023-06-05T01:29:22;100908.56;;;14.23;58.36
72892;BME280;61032;50.782;6.818;2023-06-05T01:30:29;100906.34;;;14.17;58.62
72892;BME280;61032;50.782;6.818;2023-06-05T01:31:31;100906.13;;;14.09;58.85
72892;BME280;61032;50.782;6.818;2023-06-05T01:33:02;100899.56;;;14.14;58.73
72892;BME280;61032;50.782;6.818;2023-06-05T01:34:08;100906.59;;;14.12;58.67
72892;BME280;61032;50.782;6.818;2023-06-05T01:35:13;100896.78;;;14.14;58.46
72892;BME280;61032;50.782;6.818;2023-06-05T01:36:17;100896.91;;;14.05;59.12
72892;BME280;61032;50.782;6.818;2023-06-05T01:37:18;100895.03;;;13.97;59.20
72892;BME280;61032;50.782;6.818;2023-06-05T01:38:20;100900.00;;;14.04;59.23
72892;BME280;61032;50.782;6.818;2023-06-05T01:39:22;100894.72;;;14.11;58.98
72892;BME280;61032;50.782;6.818;2023-06-05T01:40:24;100903.94;;;14.15;58.70
72892;BME280;61032;50.782;6.818;2023-06-05T01:41:26;100903.03;;;14.11;58.70
72892;BME280;61032;50.782;6.818;2023-06-05T01:42:27;100902.31;;;14.02;59.08
72892;BME280;61032;50.782;6.818;2023-06-05T01:43:29;100903.00;;;13.99;58.71
72892;BME280;61032;50.782;6.818;2023-06-05T01:44:30;100901.59;;;13.93;59.37
72892;BME280;61032;50.782;6.818;2023-06-05T01:45:31;100899.19;;;13.91;59.52
72892;BME280;61032;50.782;6.818;2023-06-05T01:46:32;100897.47;;;13.87;59.73
72892;BME280;61032;50.782;6.818;2023-06-05T01:47:34;100895.72;;;13.94;59.60
72892;BME280;61032;50.782;6.818;2023-06-05T01:48:35;100897.25;;;13.92;59.73
72892;BME280;61032;50.782;6.818;2023-06-05T01:49:35;100893.41;;;13.84;59.96
72892;BME280;61032;50.782;6.818;2023-06-05T01:50:36;100895.50;;;13.87;59.77
72892;BME280;61032;50.782;6.818;2023-06-05T01:51:37;100898.06;;;13.92;59.68
72892;BME280;61032;50.782;6.818;2023-06-05T01:52:38;100891.72;;;13.92;59.71
72892;BME280;61032;50.782;6.818;2023-06-05T01:53:42;100890.44;;;13.89;59.79
72892;BME280;61032;50.782;6.818;2023-06-05T01:54:42;100897.47;;;13.87;60.10
72892;BME280;61032;50.782;6.818;2023-06-05T01:55:42;100893.22;;;13.89;59.53
72892;BME280;61032;50.782;6.818;2023-06-05T01:56:44;100891.72;;;13.92;59.34
72892;BME280;61032;50.782;6.818;2023-06-05T01:57:44;100894.00;;;13.90;59.39
72892;BME280;61032;50.782;6.818;2023-06-05T01:58:46;100894.81;;;13.90;59.51
72892;BME280;61032;50.782;6.818;2023-06-05T01:59:47;100886.88;;;13.89;59.42
72892;BME280;61032;50.782;6.818;2023-06-05T02:00:49;100891.13;;;13.86;59.39
72892;BME280;61032;50.782;6.818;2023-06-05T02:01:49;100891.69;;;13.80;59.94
72892;BME280;61032;50.782;6.818;2023-06-05T02:02:50;100896.19;;;13.84;59.70
72892;BME280;61032;50.782;6.818;2023-06-05T02:03:50;100884.56;;;13.91;59.49
72892;BME280;61032;50.782;6.818;2023-06-05T02:04:53;100891.94;;;13.99;58.92
72892;BME280;61032;50.782;6.818;2023-06-05T02:05:54;100878.56;;;13.89;59.42
72892;BME280;61032;50.782;6.818;2023-06-05T02:06:54;100889.97;;;13.87;59.11
72892;BME280;61032;50.782;6.818;2023-06-05T02:07:55;100893.22;;;13.89;59.12
72892;BME280;61032;50.782;6.818;2023-06-05T02:08:58;100879.59;;;13.84;59.46
72892;BME280;61032;50.782;6.818;2023-06-05T02:09:58;100890.66;;;13.84;59.48
72892;BME280;61032;50.782;6.818;2023-06-05T02:11:01;100883.84;;;13.82;59.48
72892;BME280;61032;50.782;6.818;2023-06-05T02:12:02;100885.13;;;13.84;59.47
72892;BME280;61032;50.782;6.818;2023-06-05T02:13:03;100887.28;;;13.79;59.40
72892;BME280;61032;50.782;6.818;2023-06-05T02:14:05;100885.00;;;13.81;59.63
72892;BME280;61032;50.782;6.818;2023-06-05T02:15:07;100887.06;;;13.71;59.22
72892;BME280;61032;50.782;6.818;2023-06-05T02:16:09;100890.03;;;13.66;59.85
72892;BME280;61032;50.782;6.818;2023-06-05T02:17:11;100886.06;;;13.55;60.16
72892;BME280;61032;50.782;6.818;2023-06-05T02:18:13;100896.44;;;13.46;60.34
72892;BME280;61032;50.782;6.818;2023-06-05T02:19:15;100883.28;;;13.43;60.84
72892;BME280;61032;50.782;6.818;2023-06-05T02:20:19;100880.19;;;13.45;60.83
72892;BME280;61032;50.782;6.818;2023-06-05T02:21:19;100883.50;;;13.38;61.23
72892;BME280;61032;50.782;6.818;2023-06-05T02:22:20;100872.91;;;13.40;61.05
72892;BME280;61032;50.782;6.818;2023-06-05T02:23:20;100876.56;;;13.32;61.25
72892;BME280;61032;50.782;6.818;2023-06-05T02:24:21;100877.84;;;13.34;61.46
72892;BME280;61032;50.782;6.818;2023-06-05T02:25:23;100884.84;;;13.32;61.37
72892;BME280;61032;50.782;6.818;2023-06-05T02:26:27;100879.22;;;13.28;61.17
72892;BME280;61032;50.782;6.818;2023-06-05T02:27:27;100881.16;;;13.28;61.53
72892;BME280;61032;50.782;6.818;2023-06-05T02:28:28;100877.94;;;13.26;61.08
72892;BME280;61032;50.782;6.818;2023-06-05T02:29:28;100877.78;;;13.22;61.31
72892;BME280;61032;50.782;6.818;2023-06-05T02:30:28;100871.94;;;13.24;61.72
72892;BME280;61032;50.782;6.818;2023-06-05T02:31:29;100884.25;;;13.26;61.52
72892;BME280;61032;50.782;6.818;2023-06-05T02:32:30;100882.19;;;13.23;61.27
72892;BME280;61032;50.782;6.818;2023-06-05T02:33:31;100882.78;;;13.29;61.46
72892;BME280;61032;50.782;6.818;2023-06-05T02:34:32;100881.16;;;13.28;61.33
72892;BME280;61032;50.782;6.818;2023-06-05T02:35:35;100883.22;;;13.31;61.11
72892;BME280;61032;50.782;6.818;2023-06-05T02:36:36;100883.94;;;13.28;61.13
72892;BME280;61032;50.782;6.818;2023-06-05T02:37:37;100882.66;;;13.25;61.59
72892;BME280;61032;50.782;6.818;2023-06-05T02:38:43;100886.09;;;13.22;61.28
72892;BME280;61032;50.782;6.818;2023-06-05T02:39:44;100884.94;;;13.23;61.81
72892;BME280;61032;50.782;6.818;2023-06-05T02:40:45;100877.78;;;13.22;61.24
72892;BME280;61032;50.782;6.818;2023-06-05T02:41:45;100876.78;;;13.27;61.17
72892;BME280;61032;50.782;6.818;2023-06-05T02:42:46;100876.78;;;13.27;61.16
72892;BME280;61032;50.782;6.818;2023-06-05T02:43:46;100877.19;;;13.17;61.63
72892;BME280;61032;50.782;6.818;2023-06-05T02:44:46;100884.97;;;13.15;61.72
72892;BME280;61032;50.782;6.818;2023-06-05T02:45:47;100872.19;;;13.10;61.86
72892;BME280;61032;50.782;6.818;2023-06-05T02:46:47;100877.34;;;13.12;61.34
72892;BME280;61032;50.782;6.818;2023-06-05T02:47:48;100869.31;;;13.06;61.80
72892;BME280;61032;50.782;6.818;2023-06-05T02:48:48;100878.66;;;12.93;62.29
72892;BME280;61032;50.782;6.818;2023-06-05T02:49:48;100871.03;;;12.90;62.24
72892;BME280;61032;50.782;6.818;2023-06-05T02:50:49;100871.03;;;12.90;62.00
72892;BME280;61032;50.782;6.818;2023-06-05T02:51:49;100867.59;;;12.93;62.33
72892;BME280;61032;50.782;6.818;2023-06-05T02:52:49;100873.81;;;12.90;61.89
72892;BME280;61032;50.782;6.818;2023-06-05T02:53:49;100874.22;;;12.80;62.26
72892;BME280;61032;50.782;6.818;2023-06-05T02:54:50;100870.66;;;12.80;62.52
72892;BME280;61032;50.782;6.818;2023-06-05T02:55:51;100871.31;;;12.77;62.31
72892;BME280;61032;50.782;6.818;2023-06-05T02:56:53;100871.78;;;12.79;62.59
72892;BME280;61032;50.782;6.818;2023-06-05T02:57:54;100874.22;;;12.80;62.37
72892;BME280;61032;50.782;6.818;2023-06-05T02:58:57;100870.94;;;12.87;61.93
72892;BME280;61032;50.782;6.818;2023-06-05T02:59:58;100870.47;;;12.85;62.21
72892;BME280;61032;50.782;6.818;2023-06-05T03:00:58;100868.03;;;12.83;62.10
72892;BME280;61032;50.782;6.818;2023-06-05T03:02:01;100870.31;;;12.81;61.82
72892;BME280;61032;50.782;6.818;2023-06-05T03:03:02;100868.84;;;12.84;62.05
72892;BME280;61032;50.782;6.818;2023-06-05T03:04:04;100863.84;;;12.77;62.34
72892;BME280;61032;50.782;6.818;2023-06-05T03:05:04;100867.09;;;12.79;62.32
72892;BME280;61032;50.782;6.818;2023-06-05T03:06:05;100867.28;;;12.74;62.58
72892;BME280;61032;50.782;6.818;2023-06-05T03:07:07;100870.19;;;12.78;62.13
72892;BME280;61032;50.782;6.818;2023-06-05T03:08:09;100866.31;;;12.70;62.50
72892;BME280;61032;50.782;6.818;2023-06-05T03:09:10;100883.09;;;12.65;62.78
72892;BME280;61032;50.782;6.818;2023-06-05T03:10:11;100865.25;;;12.62;62.47
72892;BME280;61032;50.782;6.818;2023-06-05T03:11:11;100865.59;;;12.61;62.54
72892;BME280;61032;50.782;6.818;2023-06-05T03:12:11;100867.88;;;12.59;62.50
72892;BME280;61032;50.782;6.818;2023-06-05T03:13:12;100869.81;;;12.58;62.55
72892;BME280;61032;50.782;6.818;2023-06-05T03:14:12;100875.06;;;12.51;63.40
72892;BME280;61032;50.782;6.818;2023-06-05T03:15:13;100868.53;;;12.56;62.95
72892;BME280;61032;50.782;6.818;2023-06-05T03:16:13;100873.09;;;12.52;62.60
72892;BME280;61032;50.782;6.818;2023-06-05T03:17:14;100877.22;;;12.46;63.34
72892;BME280;61032;50.782;6.818;2023-06-05T03:18:14;100875.78;;;12.39;63.83
72892;BME280;61032;50.782;6.818;2023-06-05T03:19:14;100875.78;;;12.39;63.09
72892;BME280;61032;50.782;6.818;2023-06-05T03:20:17;100868.97;;;12.37;63.13
72892;BME280;61032;50.782;6.818;2023-06-05T03:21:18;100875.31;;;12.37;63.48
72892;BME280;61032;50.782;6.818;2023-06-05T03:22:18;100879.00;;;12.42;63.08
72892;BME280;61032;50.782;6.818;2023-06-05T03:23:18;100879.00;;;12.42;63.03
72892;BME280;61032;50.782;6.818;2023-06-05T03:24:18;100878.22;;;12.41;63.28
72892;BME280;61032;50.782;6.818;2023-06-05T03:25:19;100880.16;;;12.41;63.34
72892;BME280;61032;50.782;6.818;2023-06-05T03:26:20;100878.34;;;12.45;62.98
72892;BME280;61032;50.782;6.818;2023-06-05T03:27:22;100880.09;;;12.49;63.07
72892;BME280;61032;50.782;6.818;2023-06-05T03:28:23;100878.63;;;12.52;62.99
72892;BME280;61032;50.782;6.818;2023-06-05T03:29:24;100878.44;;;12.57;62.80
72892;BME280;61032;50.782;6.818;2023-06-05T03:30:24;100878.25;;;12.62;62.39
72892;BME280;61032;50.782;6.818;2023-06-05T03:31:25;100875.00;;;12.60;62.27
72892;BME280;61032;50.782;6.818;2023-06-05T03:32:25;100875.53;;;12.53;62.52
72892;BME280;61032;50.782;6.818;2023-06-05T03:33:25;100878.13;;;12.50;62.26
72892;BME280;61032;50.782;6.818;2023-06-05T03:34:26;100881.13;;;12.45;62.82
72892;BME280;61032;50.782;6.818;2023-06-05T03:35:26;100879.84;;;12.33;62.74
72892;BME280;61032;50.782;6.818;2023-06-05T03:36:27;100881.16;;;12.36;62.84
72892;BME280;61032;50.782;6.818;2023-06-05T03:37:33;100878.25;;;12.32;63.14
72892;BME280;61032;50.782;6.818;2023-06-05T03:38:33;100876.28;;;12.33;62.38
72892;BME280;61032;50.782;6.818;2023-06-05T03:39:34;100881.63;;;12.38;63.08
72892;BME280;61032;50.782;6.818;2023-06-05T03:40:34;100880.53;;;12.30;62.89
72892;BME280;61032;50.782;6.818;2023-06-05T03:41:35;100885.88;;;12.27;62.58
72892;BME280;61032;50.782;6.818;2023-06-05T03:42:35;100873.06;;;12.31;62.91
72892;BME280;61032;50.782;6.818;2023-06-05T03:43:35;100873.72;;;12.28;63.08
72892;BME280;61032;50.782;6.818;2023-06-05T03:44:36;100883.00;;;12.23;62.70
72892;BME280;61032;50.782;6.818;2023-06-05T03:45:38;100882.69;;;12.25;62.88
72892;BME280;61032;50.782;6.818;2023-06-05T03:46:41;100883.75;;;12.03;63.64
72892;BME280;61032;50.782;6.818;2023-06-05T03:47:42;100880.31;;;12.06;63.67
72892;BME280;61032;50.782;6.818;2023-06-05T03:48:47;100875.97;;;12.05;63.52
72892;BME280;61032;50.782;6.818;2023-06-05T03:49:55;100881.59;;;12.09;63.23
72892;BME280;61032;50.782;6.818;2023-06-05T03:50:55;100879.66;;;12.09;63.78
72892;BME280;61032;50.782;6.818;2023-06-05T03:51:57;100884.69;;;12.07;63.49
72892;BME280;61032;50.782;6.818;2023-06-05T03:53:01;100881.66;;;12.00;63.96
72892;BME280;61032;50.782;6.818;2023-06-05T03:54:04;100880.34;;;11.97;63.39
72892;BME280;61032;50.782;6.818;2023-06-05T03:55:07;100882.13;;;12.02;63.45
72892;BME280;61032;50.782;6.818;2023-06-05T03:56:08;100879.84;;;12.04;63.62
72892;BME280;61032;50.782;6.818;2023-06-05T03:57:08;100881.16;;;11.98;63.88
72892;BME280;61032;50.782;6.818;2023-06-05T03:58:14;100879.38;;;12.02;63.75
72892;BME280;61032;50.782;6.818;2023-06-05T03:59:15;100885.50;;;12.08;63.81
72892;BME280;61032;50.782;6.818;2023-06-05T04:00:19;100881.13;;;12.07;64.02
72892;BME280;61032;50.782;6.818;2023-06-05T04:01:19;100878.25;;;12.03;64.18
72892;BME280;61032;50.782;6.818;2023-06-05T04:02:20;100879.03;;;12.03;63.73
72892;BME280;61032;50.782;6.818;2023-06-05T04:03:20;100882.25;;;12.05;64.05
72892;BME280;61032;50.782;6.818;2023-06-05T04:04:21;100888.88;;;12.13;63.47
72892;BME280;61032;50.782;6.818;2023-06-05T04:05:22;100886.94;;;12.14;63.60
72892;BME280;61032;50.782;6.818;2023-06-05T04:06:22;100881.91;;;12.07;63.77
72892;BME280;61032;50.782;6.818;2023-06-05T04:07:22;100886.28;;;12.08;63.54
72892;BME280;61032;50.782;6.818;2023-06-05T04:08:22;100885.63;;;12.11;63.90
72892;BME280;61032;50.782;6.818;2023-06-05T04:09:24;100886.19;;;12.04;64.24
72892;BME280;61032;50.782;6.818;2023-06-05T04:10:25;100890.41;;;12.02;64.07
72892;BME280;61032;50.782;6.818;2023-06-05T04:11:25;100886.69;;;11.98;64.43
72892;BME280;61032;50.782;6.818;2023-06-05T04:12:26;100890.06;;;12.03;64.68
72892;BME280;61032;50.782;6.818;2023-06-05T04:13:27;100889.75;;;12.05;64.41
72892;BME280;61032;50.782;6.818;2023-06-05T04:14:27;100889.53;;;12.10;63.94
72892;BME280;61032;50.782;6.818;2023-06-05T04:15:28;100883.03;;;12.15;63.96
72892;BME280;61032;50.782;6.818;2023-06-05T04:16:28;100886.09;;;12.22;64.20
72892;BME280;61032;50.782;6.818;2023-06-05T04:17:29;100885.06;;;12.26;63.62
72892;BME280;61032;50.782;6.818;2023-06-05T04:18:30;100882.75;;;12.37;63.62
72892;BME280;61032;50.782;6.818;2023-06-05T04:19:31;100884.53;;;12.42;63.28
72892;BME280;61032;50.782;6.818;2023-06-05T04:20:31;100885.50;;;12.46;63.05
72892;BME280;61032;50.782;6.818;2023-06-05T04:21:35;100891.25;;;12.53;62.76
72892;BME280;61032;50.782;6.818;2023-06-05T04:22:36;100891.06;;;12.58;62.53
72892;BME280;61032;50.782;6.818;2023-06-05T04:23:36;100889.31;;;12.53;63.05
72892;BME280;61032;50.782;6.818;2023-06-05T04:24:36;100892.41;;;12.52;62.94
72892;BME280;61032;50.782;6.818;2023-06-05T04:25:39;100887.38;;;12.54;62.91
72892;BME280;61032;50.782;6.818;2023-06-05T04:26:45;100893.34;;;12.56;62.97
72892;BME280;61032;50.782;6.818;2023-06-05T04:27:48;100893.97;;;12.61;62.86
72892;BME280;61032;50.782;6.818;2023-06-05T04:28:50;100898.22;;;12.59;62.73
72892;BME280;61032;50.782;6.818;2023-06-05T04:29:51;100895.59;;;12.62;62.83
72892;BME280;61032;50.782;6.818;2023-06-05T04:30:52;100893.66;;;12.63;62.85
72892;BME280;61032;50.782;6.818;2023-06-05T04:31:53;100892.44;;;12.72;62.69
72892;BME280;61032;50.782;6.818;2023-06-05T04:32:54;100890.97;;;12.75;62.16
72892;BME280;61032;50.782;6.818;2023-06-05T04:33:54;100891.16;;;12.70;62.65
72892;BME280;61032;50.782;6.818;2023-06-05T04:34:54;100895.47;;;12.59;62.80
72892;BME280;61032;50.782;6.818;2023-06-05T04:35:55;100887.88;;;12.47;63.29
72892;BME280;61032;50.782;6.818;2023-06-05T04:36:55;100891.00;;;12.46;63.50
72892;BME280;61032;50.782;6.818;2023-06-05T04:37:56;100887.88;;;12.47;63.47
72892;BME280;61032;50.782;6.818;2023-06-05T04:38:56;100896.31;;;12.51;63.34
72892;BME280;61032;50.782;6.818;2023-06-05T04:39:57;100894.03;;;12.53;63.44
72892;BME280;61032;50.782;6.818;2023-06-05T04:40:59;100891.13;;;12.49;63.67
72892;BME280;61032;50.782;6.818;2023-06-05T04:41:59;100889.97;;;12.50;63.38
72892;BME280;61032;50.782;6.818;2023-06-05T04:42:59;100889.22;;;12.41;63.62
72892;BME280;61032;50.782;6.818;2023-06-05T04:44:00;100890.38;;;12.40;63.58
72892;BME280;61032;50.782;6.818;2023-06-05T04:45:05;100899.06;;;12.51;63.52
72892;BME280;61032;50.782;6.818;2023-06-05T04:46:07;100892.03;;;12.62;63.04
72892;BME280;61032;50.782;6.818;2023-06-05T04:47:08;100899.16;;;12.63;62.68
72892;BME280;61032;50.782;6.818;2023-06-05T04:48:08;100898.03;;;12.64;63.01
72892;BME280;61032;50.782;6.818;2023-06-05T04:49:10;100901.84;;;12.71;62.86
72892;BME280;61032;50.782;6.818;2023-06-05T04:50:25;100900.03;;;12.76;62.63
72892;BME280;61032;50.782;6.818;2023-06-05T04:51:26;100899.03;;;12.80;62.48
72892;BME280;61032;50.782;6.818;2023-06-05T04:52:26;100898.84;;;12.85;62.59
72892;BME280;61032;50.782;6.818;2023-06-05T04:53:29;100902.22;;;12.91;62.46
72892;BME280;61032;50.782;6.818;2023-06-05T04:54:31;100902.34;;;12.94;62.32
72892;BME280;61032;50.782;6.818;2023-06-05T04:55:31;100903.78;;;13.00;62.34
72892;BME280;61032;50.782;6.818;2023-06-05T04:56:32;100904.25;;;13.02;62.17
72892;BME280;61032;50.782;6.818;2023-06-05T04:57:34;100897.72;;;13.07;62.25
72892;BME280;61032;50.782;6.818;2023-06-05T04:58:35;100901.41;;;13.11;62.24
72892;BME280;61032;50.782;6.818;2023-06-05T04:59:36;100895.06;;;13.11;62.13
72892;BME280;61032;50.782;6.818;2023-06-05T05:00:36;100901.53;;;13.15;62.15
72892;BME280;61032;50.782;6.818;2023-06-05T05:01:36;100897.59;;;13.24;61.97
72892;BME280;61032;50.782;6.818;2023-06-05T05:02:37;100896.69;;;13.32;61.68
72892;BME280;61032;50.782;6.818;2023-06-05T05:03:37;100899.13;;;13.34;61.64
72892;BME280;61032;50.782;6.818;2023-06-05T05:04:38;100895.34;;;13.38;61.81
72892;BME280;61032;50.782;6.818;2023-06-05T05:05:38;100902.16;;;13.41;61.18
72892;BME280;61032;50.782;6.818;2023-06-05T05:06:38;100900.47;;;13.49;61.16
72892;BME280;61032;50.782;6.818;2023-06-05T05:07:41;100906.31;;;13.47;61.35
72892;BME280;61032;50.782;6.818;2023-06-05T05:08:42;100900.13;;;13.50;61.08
72892;BME280;61032;50.782;6.818;2023-06-05T05:09:45;100896.91;;;13.48;61.37
72892;BME280;61032;50.782;6.818;2023-06-05T05:10:45;100895.47;;;13.42;61.80
72892;BME280;61032;50.782;6.818;2023-06-05T05:11:45;100898.28;;;13.54;61.41
72892;BME280;61032;50.782;6.818;2023-06-05T05:12:46;100897.59;;;13.57;61.47
72892;BME280;61032;50.782;6.818;2023-06-05T05:13:46;100895.00;;;13.73;60.94
72892;BME280;61032;50.782;6.818;2023-06-05T05:14:46;100900.66;;;13.76;60.57
72892;BME280;61032;50.782;6.818;2023-06-05T05:15:47;100904.00;;;13.82;60.70
72892;BME280;61032;50.782;6.818;2023-06-05T05:16:48;100898.13;;;13.84;60.07
72892;BME280;61032;50.782;6.818;2023-06-05T05:17:49;100908.50;;;13.87;60.56
72892;BME280;61032;50.782;6.818;2023-06-05T05:18:51;100906.44;;;13.96;60.05
72892;BME280;61032;50.782;6.818;2023-06-05T05:19:52;100897.59;;;14.02;59.37
72892;BME280;61032;50.782;6.818;2023-06-05T05:20:52;100902.31;;;14.02;59.98
72892;BME280;61032;50.782;6.818;2023-06-05T05:21:54;100903.50;;;14.13;59.66
72892;BME280;61032;50.782;6.818;2023-06-05T05:22:55;100899.47;;;14.23;59.43
72892;BME280;61032;50.782;6.818;2023-06-05T05:23:56;100906.72;;;14.27;59.19